createdAt,value
2018-09-20T00:00:54.382Z,22.50
2018-09-20T00:01:56.479Z,22.50
2018-09-20T00:02:58.610Z,22.50
2018-09-20T00:04:00.740Z,22.50
2018-09-20T00:05:02.874Z,22.40
2018-09-20T00:06:05.245Z,22.40
2018-09-20T00:07:07.452Z,22.50
2018-09-20T00:08:09.578Z,22.40
2018-09-20T00:09:11.744Z,22.40
2018-09-20T00:10:13.889Z,22.40
2018-09-20T00:11:16.031Z,22.40
2018-09-20T00:12:18.186Z,22.30
2018-09-20T00:13:20.345Z,22.30
2018-09-20T00:14:22.525Z,22.40
2018-09-20T00:15:24.685Z,22.30
2018-09-20T00:16:26.805Z,22.30
2018-09-20T00:17:28.941Z,22.30
2018-09-20T00:18:31.050Z,22.30
2018-09-20T00:19:33.431Z,22.30
2018-09-20T00:20:35.570Z,22.20
2018-09-20T00:21:37.989Z,22.20
2018-09-20T00:22:40.115Z,22.30
2018-09-20T00:23:42.601Z,22.20
2018-09-20T00:24:44.759Z,22.20
2018-09-20T00:25:46.895Z,22.20
2018-09-20T00:26:49.010Z,22.20
2018-09-20T00:27:51.162Z,22.20
2018-09-20T00:28:53.286Z,22.20
2018-09-20T00:29:55.417Z,22.20
2018-09-20T00:30:57.649Z,22.20
2018-09-20T00:31:59.781Z,22.20
2018-09-20T00:33:01.896Z,22.20
2018-09-20T00:34:04.034Z,22.20
2018-09-20T00:35:06.222Z,22.20
2018-09-20T00:36:08.357Z,22.20
2018-09-20T00:37:11.216Z,22.20
2018-09-20T00:38:13.390Z,22.10
2018-09-20T00:39:15.517Z,22.20
2018-09-20T00:40:17.682Z,22.20
2018-09-20T00:41:20.349Z,22.20
2018-09-20T00:42:22.508Z,22.10
2018-09-20T00:43:24.665Z,22.10
2018-09-20T00:44:27.307Z,22.10
2018-09-20T00:45:29.460Z,22.10
2018-09-20T00:46:31.597Z,22.10
2018-09-20T00:47:33.717Z,22.00
2018-09-20T00:48:35.861Z,22.10
2018-09-20T00:49:37.969Z,21.90
2018-09-20T00:50:40.122Z,22.00
2018-09-20T00:51:42.265Z,22.00
2018-09-20T00:52:44.396Z,22.00
2018-09-20T00:53:46.767Z,22.00
2018-09-20T00:54:48.914Z,21.90
2018-09-20T00:55:51.036Z,21.90
2018-09-20T00:56:53.161Z,21.90
2018-09-20T00:57:55.290Z,21.90
2018-09-20T00:58:57.426Z,21.90
2018-09-20T00:59:59.565Z,21.90
2018-09-20T01:01:01.746Z,21.90
2018-09-20T01:02:04.170Z,21.90
2018-09-20T01:03:06.329Z,21.80
2018-09-20T01:04:08.490Z,21.90
2018-09-20T01:05:10.647Z,21.90
2018-09-20T01:06:12.776Z,21.80
2018-09-20T01:07:15.198Z,21.90
2018-09-20T01:08:17.437Z,21.90
2018-09-20T01:09:19.554Z,21.80
2018-09-20T01:10:21.716Z,21.80
2018-09-20T01:11:23.918Z,21.80
2018-09-20T01:12:26.387Z,21.80
2018-09-20T01:13:28.547Z,21.70
2018-09-20T01:14:30.705Z,21.70
2018-09-20T01:15:32.869Z,21.70
2018-09-20T01:16:35.299Z,21.70
2018-09-20T01:17:37.438Z,21.70
2018-09-20T01:18:39.593Z,21.70
2018-09-20T01:19:41.761Z,21.70
2018-09-20T01:20:44.212Z,21.70
2018-09-20T01:21:46.390Z,21.70
2018-09-20T01:22:48.537Z,21.70
2018-09-20T01:23:50.935Z,21.70
2018-09-20T01:24:53.065Z,21.70
2018-09-20T01:25:55.224Z,21.70
2018-09-20T01:26:57.365Z,21.70
2018-09-20T01:27:59.488Z,21.70
2018-09-20T01:29:01.670Z,21.70
2018-09-20T01:30:04.290Z,21.70
2018-09-20T01:31:06.449Z,21.70
2018-09-20T01:32:08.600Z,21.70
2018-09-20T01:33:10.741Z,21.70
2018-09-20T01:34:12.862Z,21.70
2018-09-20T01:35:15.037Z,21.70
2018-09-20T01:36:17.146Z,21.70
2018-09-20T01:37:19.604Z,21.60
2018-09-20T01:38:21.735Z,21.60
2018-09-20T01:39:23.849Z,21.60
2018-09-20T01:40:26.073Z,21.60
2018-09-20T01:41:29.383Z,21.60
2018-09-20T01:42:31.522Z,21.60
2018-09-20T01:43:33.659Z,21.60
2018-09-20T01:44:35.807Z,21.60
2018-09-20T01:45:39.103Z,21.60
2018-09-20T01:46:41.409Z,21.60
2018-09-20T01:47:43.543Z,21.60
2018-09-20T01:48:45.682Z,21.50
2018-09-20T01:49:47.830Z,21.60
2018-09-20T01:50:49.972Z,21.60
2018-09-20T01:51:52.111Z,21.50
2018-09-20T01:52:54.252Z,21.50
2018-09-20T01:53:56.421Z,21.50
2018-09-20T01:54:58.573Z,21.50
2018-09-20T01:56:00.730Z,21.50
2018-09-20T01:57:03.104Z,21.50
2018-09-20T01:58:05.268Z,21.50
2018-09-20T01:59:07.405Z,21.50
2018-09-20T02:00:09.604Z,21.50
2018-09-20T02:01:12.005Z,21.50
2018-09-20T02:02:14.134Z,21.40
2018-09-20T02:03:16.269Z,21.40
2018-09-20T02:04:18.402Z,21.40
2018-09-20T02:05:20.586Z,21.40
2018-09-20T02:06:22.717Z,21.40
2018-09-20T02:07:25.293Z,21.40
2018-09-20T02:08:27.440Z,21.40
2018-09-20T02:09:29.638Z,21.40
2018-09-20T02:10:31.793Z,21.40
2018-09-20T02:11:33.913Z,21.40
2018-09-20T02:12:36.051Z,21.40
2018-09-20T02:13:38.195Z,21.40
2018-09-20T02:14:40.366Z,21.40
2018-09-20T02:15:42.749Z,21.40
2018-09-20T02:16:44.862Z,21.40
2018-09-20T02:17:46.999Z,21.40
2018-09-20T02:18:49.140Z,21.50
2018-09-20T02:19:51.262Z,21.50
2018-09-20T02:20:53.485Z,21.40
2018-09-20T02:21:55.666Z,21.40
2018-09-20T02:22:57.846Z,21.40
2018-09-20T02:23:59.995Z,21.50
2018-09-20T02:25:02.123Z,21.40
2018-09-20T02:26:04.309Z,21.40
2018-09-20T02:27:06.465Z,21.50
2018-09-20T02:28:08.686Z,21.40
2018-09-20T02:29:10.800Z,21.40
2018-09-20T02:30:12.948Z,21.40
2018-09-20T02:31:15.093Z,21.40
2018-09-20T02:32:17.236Z,21.30
2018-09-20T02:33:19.365Z,21.30
2018-09-20T02:34:21.783Z,21.30
2018-09-20T02:35:23.910Z,21.30
2018-09-20T02:36:26.105Z,21.30
2018-09-20T02:37:28.266Z,21.50
2018-09-20T02:38:30.442Z,21.30
2018-09-20T02:39:32.578Z,21.30
2018-09-20T02:40:34.768Z,21.30
2018-09-20T02:41:37.290Z,21.30
2018-09-20T02:42:39.438Z,21.30
2018-09-20T02:43:41.576Z,21.30
2018-09-20T02:44:43.702Z,21.30
2018-09-20T02:45:45.810Z,21.30
2018-09-20T02:46:47.957Z,21.30
2018-09-20T02:47:50.134Z,21.30
2018-09-20T02:48:52.329Z,21.20
2018-09-20T02:49:54.461Z,21.20
2018-09-20T02:50:56.622Z,21.20
2018-09-20T02:51:59.274Z,21.20
2018-09-20T02:53:01.416Z,21.20
2018-09-20T02:54:03.534Z,21.20
2018-09-20T02:55:06.091Z,21.20
2018-09-20T02:56:08.238Z,21.20
2018-09-20T02:57:10.374Z,21.20
2018-09-20T02:58:12.490Z,21.20
2018-09-20T02:59:14.619Z,21.20
2018-09-20T03:00:16.821Z,21.20
2018-09-20T03:01:18.998Z,21.20
2018-09-20T03:02:21.123Z,21.10
2018-09-20T03:03:23.525Z,21.20
2018-09-20T03:04:25.632Z,21.20
2018-09-20T03:05:27.767Z,21.10
2018-09-20T03:06:29.897Z,21.10
2018-09-20T03:07:32.075Z,21.10
2018-09-20T03:08:34.255Z,21.10
2018-09-20T03:09:36.395Z,21.10
2018-09-20T03:10:38.536Z,21.10
2018-09-20T03:11:41.005Z,21.00
2018-09-20T03:12:43.133Z,21.10
2018-09-20T03:13:45.258Z,21.00
2018-09-20T03:14:47.403Z,21.00
2018-09-20T03:15:49.547Z,21.00
2018-09-20T03:16:51.662Z,21.00
2018-09-20T03:17:53.793Z,21.00
2018-09-20T03:18:55.923Z,21.00
2018-09-20T03:19:58.058Z,21.00
2018-09-20T03:21:00.466Z,21.00
2018-09-20T03:22:02.650Z,21.00
2018-09-20T03:23:04.800Z,21.00
2018-09-20T03:24:07.000Z,21.00
2018-09-20T03:25:09.130Z,21.00
2018-09-20T03:26:11.285Z,21.00
2018-09-20T03:27:13.398Z,21.00
2018-09-20T03:28:15.529Z,21.00
2018-09-20T03:29:17.677Z,21.00
2018-09-20T03:30:19.899Z,21.00
2018-09-20T03:31:22.024Z,21.00
2018-09-20T03:32:24.180Z,21.00
2018-09-20T03:33:26.318Z,21.00
2018-09-20T03:34:28.467Z,21.00
2018-09-20T03:35:30.681Z,21.00
2018-09-20T03:36:32.796Z,21.00
2018-09-20T03:37:34.994Z,20.90
2018-09-20T03:38:37.286Z,20.90
2018-09-20T03:39:39.502Z,20.90
2018-09-20T03:40:41.650Z,20.80
2018-09-20T03:41:44.010Z,20.80
2018-09-20T03:42:46.177Z,20.90
2018-09-20T03:43:48.594Z,20.80
2018-09-20T03:44:50.774Z,20.70
2018-09-20T03:45:52.915Z,20.70
2018-09-20T03:46:55.338Z,20.70
2018-09-20T03:47:57.780Z,20.70
2018-09-20T03:49:00.184Z,20.70
2018-09-20T03:50:02.350Z,20.70
2018-09-20T03:51:04.788Z,20.60
2018-09-20T03:52:06.938Z,20.60
2018-09-20T03:53:09.217Z,20.60
2018-09-20T03:54:11.387Z,20.60
2018-09-20T03:55:13.546Z,20.50
2018-09-20T03:56:15.689Z,20.50
2018-09-20T03:57:17.835Z,20.50
2018-09-20T03:58:19.975Z,20.60
2018-09-20T03:59:22.129Z,20.60
2018-09-20T04:00:24.296Z,20.50
2018-09-20T04:01:26.493Z,20.50
2018-09-20T04:02:28.629Z,20.50
2018-09-20T04:03:30.794Z,20.50
2018-09-20T04:04:32.955Z,20.40
2018-09-20T04:05:35.121Z,20.40
2018-09-20T04:06:37.526Z,20.40
2018-09-20T04:07:39.708Z,20.40
2018-09-20T04:08:41.866Z,20.40
2018-09-20T04:09:44.090Z,20.40
2018-09-20T04:10:46.187Z,20.30
2018-09-20T04:11:48.610Z,20.40
2018-09-20T04:12:51.058Z,20.30
2018-09-20T04:13:53.230Z,20.30
2018-09-20T04:14:55.774Z,20.20
2018-09-20T04:15:57.954Z,20.20
2018-09-20T04:17:00.119Z,20.20
2018-09-20T04:18:02.285Z,20.20
2018-09-20T04:19:04.643Z,20.20
2018-09-20T04:20:07.433Z,20.20
2018-09-20T04:21:09.832Z,20.10
2018-09-20T04:22:11.996Z,20.10
2018-09-20T04:23:14.190Z,20.10
2018-09-20T04:24:16.623Z,20.10
2018-09-20T04:25:18.790Z,20.10
2018-09-20T04:26:20.933Z,20.10
2018-09-20T04:27:23.070Z,20.10
2018-09-20T04:28:25.228Z,20.10
2018-09-20T04:29:27.375Z,20.10
2018-09-20T04:30:29.645Z,20.10
2018-09-20T04:31:31.877Z,20.10
2018-09-20T04:32:33.987Z,20.10
2018-09-20T04:33:36.121Z,20.10
2018-09-20T04:34:38.263Z,20.00
2018-09-20T04:35:40.774Z,20.00
2018-09-20T04:36:42.946Z,20.00
2018-09-20T04:37:45.082Z,20.00
2018-09-20T04:38:47.240Z,20.00
2018-09-20T04:39:49.584Z,20.00
2018-09-20T04:40:51.718Z,20.00
2018-09-20T04:41:53.858Z,19.90
2018-09-20T04:42:55.998Z,20.00
2018-09-20T04:43:58.151Z,20.00
2018-09-20T04:45:00.302Z,20.00
2018-09-20T04:46:02.459Z,20.00
2018-09-20T04:47:04.907Z,20.00
2018-09-20T04:48:07.088Z,20.00
2018-09-20T04:49:09.303Z,20.00
2018-09-20T04:50:11.461Z,20.00
2018-09-20T04:51:13.594Z,20.00
2018-09-20T04:52:15.731Z,20.00
2018-09-20T04:53:17.973Z,20.00
2018-09-20T04:54:20.103Z,20.00
2018-09-20T04:55:22.275Z,20.00
2018-09-20T04:56:25.099Z,20.00
2018-09-20T04:57:27.254Z,20.00
2018-09-20T04:58:29.393Z,19.80
2018-09-20T04:59:31.605Z,20.00
2018-09-20T05:00:33.787Z,20.00
2018-09-20T05:01:35.912Z,19.90
2018-09-20T05:02:38.075Z,19.90
2018-09-20T05:03:40.209Z,19.90
2018-09-20T05:04:42.356Z,19.90
2018-09-20T05:05:44.638Z,19.90
2018-09-20T05:06:46.764Z,19.90
2018-09-20T05:07:48.905Z,19.80
2018-09-20T05:08:51.297Z,19.80
2018-09-20T05:09:53.799Z,19.80
2018-09-20T05:10:55.990Z,19.80
2018-09-20T05:11:58.421Z,19.80
2018-09-20T05:13:00.543Z,19.90
2018-09-20T05:14:02.733Z,19.80
2018-09-20T05:15:04.928Z,19.80
2018-09-20T05:16:07.076Z,19.80
2018-09-20T05:17:09.222Z,19.80
2018-09-20T05:18:11.581Z,19.80
2018-09-20T05:19:13.699Z,19.80
2018-09-20T05:20:15.952Z,19.80
2018-09-20T05:21:18.042Z,19.80
2018-09-20T05:22:20.202Z,19.80
2018-09-20T05:23:22.377Z,19.80
2018-09-20T05:24:24.490Z,19.90
2018-09-20T05:25:26.627Z,19.90
2018-09-20T05:26:29.034Z,19.80
2018-09-20T05:27:31.179Z,19.80
2018-09-20T05:28:33.330Z,19.80
2018-09-20T05:29:35.478Z,19.90
2018-09-20T05:30:37.634Z,19.90
2018-09-20T05:31:39.798Z,20.00
2018-09-20T05:32:41.965Z,20.00
2018-09-20T05:33:44.122Z,20.00
2018-09-20T05:34:46.326Z,19.90
2018-09-20T05:35:48.741Z,19.90
2018-09-20T05:36:50.917Z,19.90
2018-09-20T05:37:53.054Z,20.10
2018-09-20T05:38:55.211Z,19.90
2018-09-20T05:39:57.394Z,19.90
2018-09-20T05:40:59.534Z,20.00
2018-09-20T05:42:01.679Z,20.00
2018-09-20T05:43:03.843Z,20.00
2018-09-20T05:44:06.278Z,19.90
2018-09-20T05:45:08.399Z,20.00
2018-09-20T05:46:10.581Z,20.00
2018-09-20T05:47:12.786Z,20.00
2018-09-20T05:48:14.947Z,20.00
2018-09-20T05:49:17.255Z,20.00
2018-09-20T05:50:19.392Z,20.00
2018-09-20T05:51:21.598Z,20.00
2018-09-20T05:52:23.715Z,20.00
2018-09-20T05:53:25.846Z,20.00
2018-09-20T05:54:27.965Z,20.00
2018-09-20T05:55:30.091Z,20.00
2018-09-20T05:56:32.566Z,20.00
2018-09-20T05:57:34.721Z,20.00
2018-09-20T05:58:36.996Z,20.00
2018-09-20T05:59:39.125Z,20.00
2018-09-20T06:00:41.389Z,20.10
2018-09-20T06:01:43.542Z,20.10
2018-09-20T06:02:45.710Z,20.10
2018-09-20T06:03:47.861Z,20.10
2018-09-20T06:04:50.245Z,20.00
2018-09-20T06:05:52.488Z,20.00
2018-09-20T06:06:54.582Z,20.00
2018-09-20T06:07:56.745Z,20.00
2018-09-20T06:08:58.877Z,20.00
2018-09-20T06:10:01.027Z,20.10
2018-09-20T06:11:03.230Z,20.00
2018-09-20T06:12:05.443Z,20.00
2018-09-20T06:13:07.608Z,20.00
2018-09-20T06:14:09.723Z,20.00
2018-09-20T06:15:11.966Z,20.10
2018-09-20T06:16:14.088Z,20.10
2018-09-20T06:17:16.200Z,20.20
2018-09-20T06:18:18.356Z,20.10
2018-09-20T06:19:20.530Z,20.10
2018-09-20T06:20:22.668Z,20.20
2018-09-20T06:21:24.835Z,19.90
2018-09-20T06:22:26.991Z,20.20
2018-09-20T06:23:29.127Z,20.20
2018-09-20T06:24:31.265Z,20.20
2018-09-20T06:25:33.402Z,20.20
2018-09-20T06:26:35.545Z,20.20
2018-09-20T06:27:37.719Z,20.30
2018-09-20T06:28:39.834Z,20.30
2018-09-20T06:29:42.006Z,20.30
2018-09-20T06:30:44.153Z,20.30
2018-09-20T06:31:46.328Z,20.30
2018-09-20T06:32:48.531Z,20.30
2018-09-20T06:33:50.721Z,20.30
2018-09-20T06:34:52.885Z,20.30
2018-09-20T06:35:55.060Z,20.30
2018-09-20T06:36:57.273Z,20.30
2018-09-20T06:37:59.666Z,20.30
2018-09-20T06:39:01.858Z,20.40
2018-09-20T06:40:04.249Z,20.40
2018-09-20T06:41:06.389Z,20.40
2018-09-20T06:42:08.558Z,20.40
2018-09-20T06:43:10.684Z,20.50
2018-09-20T06:44:12.875Z,20.50
2018-09-20T06:45:15.011Z,20.40
2018-09-20T06:46:17.192Z,20.50
2018-09-20T06:47:19.597Z,20.60
2018-09-20T06:48:21.733Z,20.60
2018-09-20T06:49:23.854Z,20.60
2018-09-20T06:50:26.052Z,20.60
2018-09-20T06:51:28.187Z,20.60
2018-09-20T06:52:30.346Z,20.70
2018-09-20T06:53:32.485Z,20.70
2018-09-20T06:54:34.599Z,20.70
2018-09-20T06:55:36.744Z,20.70
2018-09-20T06:56:38.922Z,20.70
2018-09-20T06:57:41.013Z,20.70
2018-09-20T06:58:43.398Z,20.70
2018-09-20T06:59:45.984Z,20.70
2018-09-20T07:00:48.207Z,20.80
2018-09-20T07:01:50.461Z,20.80
2018-09-20T07:02:52.656Z,20.80
2018-09-20T07:03:54.754Z,20.90
2018-09-20T07:04:56.861Z,20.90
2018-09-20T07:05:59.026Z,20.90
2018-09-20T07:07:01.170Z,21.00
2018-09-20T07:08:03.347Z,20.90
2018-09-20T07:09:08.338Z,20.90
2018-09-20T07:10:10.473Z,21.00
2018-09-20T07:11:12.679Z,21.00
2018-09-20T07:12:14.809Z,21.00
2018-09-20T07:13:16.937Z,21.00
2018-09-20T07:14:19.063Z,21.00
2018-09-20T07:15:21.236Z,21.00
2018-09-20T07:16:23.374Z,21.00
2018-09-20T07:17:25.550Z,21.10
2018-09-20T07:18:27.677Z,21.10
2018-09-20T07:19:30.173Z,21.10
2018-09-20T07:20:32.337Z,21.10
2018-09-20T07:21:34.539Z,21.10
2018-09-20T07:22:36.709Z,21.20
2018-09-20T07:23:38.832Z,21.20
2018-09-20T07:24:40.940Z,21.20
2018-09-20T07:25:43.252Z,21.30
2018-09-20T07:26:45.525Z,21.30
2018-09-20T07:27:47.629Z,21.30
2018-09-20T07:28:49.789Z,21.30
2018-09-20T07:29:51.940Z,21.30
2018-09-20T07:30:54.142Z,21.40
2018-09-20T07:31:56.265Z,21.40
2018-09-20T07:32:58.394Z,21.50
2018-09-20T07:34:00.564Z,21.50
2018-09-20T07:35:03.128Z,21.60
2018-09-20T07:36:05.310Z,21.60
2018-09-20T07:37:07.449Z,21.60
2018-09-20T07:38:09.565Z,21.70
2018-09-20T07:39:11.714Z,21.70
2018-09-20T07:40:13.872Z,21.70
2018-09-20T07:41:16.006Z,21.70
2018-09-20T07:42:18.558Z,21.70
2018-09-20T07:43:20.703Z,21.70
2018-09-20T07:44:23.313Z,21.70
2018-09-20T07:45:25.454Z,21.70
2018-09-20T07:46:27.586Z,21.70
2018-09-20T07:47:29.696Z,21.80
2018-09-20T07:48:31.821Z,21.80
2018-09-20T07:49:33.941Z,21.80
2018-09-20T07:50:36.333Z,21.80
2018-09-20T07:51:38.493Z,21.90
2018-09-20T07:52:40.913Z,21.90
2018-09-20T07:53:43.098Z,21.90
2018-09-20T07:54:45.202Z,21.90
2018-09-20T07:55:47.405Z,22.00
2018-09-20T07:56:49.600Z,22.00
2018-09-20T07:57:51.721Z,22.00
2018-09-20T07:58:53.998Z,22.10
2018-09-20T07:59:57.695Z,22.10
2018-09-20T08:01:00.270Z,22.10
2018-09-20T08:02:02.718Z,22.10
2018-09-20T08:03:04.778Z,22.10
2018-09-20T08:04:06.941Z,22.10
2018-09-20T08:05:09.077Z,22.10
2018-09-20T08:06:11.254Z,22.10
2018-09-20T08:07:13.443Z,22.10
2018-09-20T08:08:15.549Z,22.10
2018-09-20T08:09:17.665Z,22.20
2018-09-20T08:10:19.852Z,22.20
2018-09-20T08:11:21.997Z,22.20
2018-09-20T08:12:24.136Z,22.30
2018-09-20T08:13:26.255Z,22.30
2018-09-20T08:14:28.393Z,22.30
2018-09-20T08:15:30.558Z,22.30
2018-09-20T08:16:33.013Z,22.30
2018-09-20T08:17:35.621Z,22.30
2018-09-20T08:18:37.751Z,22.40
2018-09-20T08:19:39.888Z,22.40
2018-09-20T08:20:42.046Z,22.40
2018-09-20T08:21:44.197Z,22.50
2018-09-20T08:22:46.330Z,22.50
2018-09-20T08:23:48.815Z,22.50
2018-09-20T08:24:50.971Z,22.50
2018-09-20T08:25:53.099Z,22.60
2018-09-20T08:26:55.357Z,22.60
2018-09-20T08:27:57.603Z,22.70
2018-09-20T08:28:59.662Z,22.60
2018-09-20T08:30:01.873Z,22.70
2018-09-20T08:31:04.022Z,22.70
2018-09-20T08:32:06.453Z,22.80
2018-09-20T08:33:08.623Z,22.80
2018-09-20T08:34:10.754Z,22.80
2018-09-20T08:35:13.102Z,22.90
2018-09-20T08:36:15.275Z,22.90
2018-09-20T08:37:17.779Z,23.00
2018-09-20T08:38:19.841Z,23.00
2018-09-20T08:39:22.002Z,23.10
2018-09-20T08:40:24.147Z,23.10
2018-09-20T08:41:26.274Z,23.10
2018-09-20T08:42:28.413Z,23.20
2018-09-20T08:43:30.516Z,23.20
2018-09-20T08:44:32.621Z,23.30
2018-09-20T08:45:34.733Z,23.30
2018-09-20T08:46:36.906Z,23.30
2018-09-20T08:47:39.235Z,23.40
2018-09-20T08:48:41.357Z,23.50
2018-09-20T08:49:43.526Z,23.50
2018-09-20T08:50:45.962Z,23.50
2018-09-20T08:51:48.093Z,23.50
2018-09-20T08:52:50.259Z,23.60
2018-09-20T08:53:52.664Z,23.60
2018-09-20T08:54:54.785Z,23.60
2018-09-20T08:55:56.941Z,23.70
2018-09-20T08:56:59.158Z,23.60
2018-09-20T08:58:01.269Z,23.70
2018-09-20T08:59:03.426Z,23.70
2018-09-20T09:00:06.302Z,23.70
2018-09-20T09:01:08.701Z,23.70
2018-09-20T09:02:10.827Z,23.70
2018-09-20T09:03:12.927Z,23.80
2018-09-20T09:04:15.344Z,23.80
2018-09-20T09:05:17.460Z,23.90
2018-09-20T09:06:19.604Z,23.90
2018-09-20T09:07:21.726Z,24.00
2018-09-20T09:08:24.069Z,24.00
2018-09-20T09:09:26.311Z,24.00
2018-09-20T09:10:28.447Z,24.10
2018-09-20T09:11:30.545Z,24.00
2018-09-20T09:12:32.673Z,24.10
2018-09-20T09:13:34.814Z,24.00
2018-09-20T09:14:37.050Z,24.10
2018-09-20T09:15:39.161Z,24.10
2018-09-20T09:16:41.298Z,24.10
2018-09-20T09:17:43.417Z,24.10
2018-09-20T09:18:45.578Z,24.20
2018-09-20T09:19:47.714Z,24.20
2018-09-20T09:20:49.845Z,24.20
2018-09-20T09:21:52.388Z,24.20
2018-09-20T09:22:54.502Z,24.30
2018-09-20T09:23:56.636Z,24.30
2018-09-20T09:24:58.839Z,24.30
2018-09-20T09:26:01.261Z,24.30
2018-09-20T09:27:03.438Z,24.40
2018-09-20T09:28:05.777Z,24.40
2018-09-20T09:29:07.914Z,24.50
2018-09-20T09:30:10.045Z,24.50
2018-09-20T09:31:12.153Z,24.60
2018-09-20T09:32:14.277Z,24.60
2018-09-20T09:33:16.439Z,24.60
2018-09-20T09:34:18.591Z,24.70
2018-09-20T09:35:21.002Z,24.70
2018-09-20T09:36:23.138Z,24.80
2018-09-20T09:37:25.245Z,24.80
2018-09-20T09:38:27.373Z,24.80
2018-09-20T09:39:29.499Z,24.90
2018-09-20T09:40:31.852Z,24.90
2018-09-20T09:41:33.999Z,24.90
2018-09-20T09:42:36.129Z,25.00
2018-09-20T09:43:38.303Z,25.00
2018-09-20T09:44:40.454Z,25.10
2018-09-20T09:45:42.583Z,25.10
2018-09-20T09:46:44.721Z,25.10
2018-09-20T09:47:46.857Z,25.10
2018-09-20T09:48:49.130Z,25.20
2018-09-20T09:49:51.306Z,25.20
2018-09-20T09:50:53.437Z,25.20
2018-09-20T09:51:55.657Z,25.20
2018-09-20T09:52:57.803Z,25.30
2018-09-20T09:54:00.169Z,25.30
2018-09-20T09:55:02.784Z,25.30
2018-09-20T09:56:05.436Z,25.40
2018-09-20T09:57:07.588Z,25.30
2018-09-20T09:58:09.721Z,25.40
2018-09-20T09:59:11.870Z,25.40
2018-09-20T10:00:14.018Z,25.40
2018-09-20T10:01:16.170Z,25.40
2018-09-20T10:02:18.302Z,25.40
2018-09-20T10:03:20.434Z,25.40
2018-09-20T10:04:22.666Z,25.40
2018-09-20T10:05:25.110Z,25.40
2018-09-20T10:06:27.477Z,25.40
2018-09-20T10:07:29.607Z,25.50
2018-09-20T10:08:31.765Z,25.50
2018-09-20T10:09:33.951Z,25.60
2018-09-20T10:10:36.071Z,25.60
2018-09-20T10:11:38.518Z,25.60
2018-09-20T10:12:40.627Z,25.70
2018-09-20T10:13:42.852Z,25.70
2018-09-20T10:14:44.921Z,25.80
2018-09-20T10:15:47.139Z,25.80
2018-09-20T10:16:49.273Z,25.80
2018-09-20T10:17:51.422Z,25.80
2018-09-20T10:18:53.565Z,25.80
2018-09-20T10:19:55.761Z,25.80
2018-09-20T10:20:58.162Z,25.90
2018-09-20T10:22:00.354Z,25.90
2018-09-20T10:23:03.072Z,25.90
2018-09-20T10:24:05.300Z,26.00
2018-09-20T10:25:07.367Z,26.00
2018-09-20T10:26:09.472Z,26.00
2018-09-20T10:27:11.586Z,26.00
2018-09-20T10:28:13.753Z,26.00
2018-09-20T10:29:15.851Z,26.10
2018-09-20T10:30:17.979Z,26.10
2018-09-20T10:31:20.167Z,26.10
2018-09-20T10:32:22.250Z,26.20
2018-09-20T10:33:24.371Z,26.20
2018-09-20T10:34:26.499Z,26.20
2018-09-20T10:35:28.645Z,26.20
2018-09-20T10:36:31.073Z,26.30
2018-09-20T10:37:33.979Z,26.20
2018-09-20T10:38:36.680Z,26.20
2018-09-20T10:39:38.824Z,26.30
2018-09-20T10:40:41.016Z,26.30
2018-09-20T10:41:43.405Z,26.40
2018-09-20T10:42:45.534Z,26.40
2018-09-20T10:43:47.683Z,26.40
2018-09-20T10:44:50.148Z,26.50
2018-09-20T10:45:52.221Z,26.60
2018-09-20T10:46:54.359Z,26.60
2018-09-20T10:47:56.474Z,26.60
2018-09-20T10:48:58.599Z,26.60
2018-09-20T10:50:01.827Z,26.60
2018-09-20T10:51:03.989Z,26.70
2018-09-20T10:52:06.136Z,26.60
2018-09-20T10:53:08.509Z,26.70
2018-09-20T10:54:10.621Z,26.70
2018-09-20T10:55:12.770Z,26.70
2018-09-20T10:56:14.902Z,26.70
2018-09-20T10:57:17.345Z,26.80
2018-09-20T10:58:19.462Z,26.80
2018-09-20T10:59:21.580Z,26.80
2018-09-20T11:00:23.753Z,26.90
2018-09-20T11:01:25.893Z,26.90
2018-09-20T11:02:28.018Z,27.00
2018-09-20T11:03:30.265Z,26.90
2018-09-20T11:04:32.597Z,26.90
2018-09-20T11:05:34.701Z,27.00
2018-09-20T11:06:37.081Z,27.00
2018-09-20T11:07:39.197Z,27.10
2018-09-20T11:08:41.325Z,27.10
2018-09-20T11:09:43.530Z,27.10
2018-09-20T11:10:45.655Z,27.20
2018-09-20T11:11:47.838Z,27.20
2018-09-20T11:12:49.974Z,27.20
2018-09-20T11:13:52.344Z,27.20
2018-09-20T11:14:54.478Z,27.30
2018-09-20T11:15:56.725Z,27.30
2018-09-20T11:16:58.843Z,27.30
2018-09-20T11:18:01.057Z,27.30
2018-09-20T11:19:03.254Z,27.30
2018-09-20T11:20:05.565Z,27.40
2018-09-20T11:21:07.701Z,27.40
2018-09-20T11:22:09.813Z,27.50
2018-09-20T11:23:11.934Z,27.50
2018-09-20T11:24:14.057Z,27.50
2018-09-20T11:25:16.179Z,27.50
2018-09-20T11:26:18.372Z,27.60
2018-09-20T11:27:20.541Z,27.60
2018-09-20T11:28:23.009Z,27.60
2018-09-20T11:29:25.127Z,27.60
2018-09-20T11:30:27.233Z,27.70
2018-09-20T11:31:29.366Z,27.70
2018-09-20T11:32:31.524Z,27.90
2018-09-20T11:33:33.685Z,27.70
2018-09-20T11:34:35.822Z,27.70
2018-09-20T11:35:37.929Z,27.70
2018-09-20T11:36:40.514Z,27.80
2018-09-20T11:37:42.697Z,27.80
2018-09-20T11:38:44.852Z,27.80
2018-09-20T11:39:47.031Z,27.80
2018-09-20T11:40:49.166Z,27.80
2018-09-20T11:41:51.261Z,27.90
2018-09-20T11:42:53.438Z,27.90
2018-09-20T11:43:55.570Z,28.00
2018-09-20T11:44:58.106Z,27.90
2018-09-20T11:46:00.222Z,28.00
2018-09-20T11:47:02.434Z,28.00
2018-09-20T11:48:04.638Z,28.00
2018-09-20T11:49:06.798Z,28.00
2018-09-20T11:50:08.936Z,28.00
2018-09-20T11:51:11.065Z,28.10
2018-09-20T11:52:13.202Z,28.10
2018-09-20T11:53:15.328Z,28.10
2018-09-20T11:54:17.493Z,28.20
2018-09-20T11:55:19.633Z,28.20
2018-09-20T11:56:21.750Z,28.20
2018-09-20T11:57:23.910Z,28.20
2018-09-20T11:58:26.063Z,28.30
2018-09-20T11:59:28.177Z,28.30
2018-09-20T12:00:30.330Z,28.30
2018-09-20T12:01:32.473Z,28.30
2018-09-20T12:02:34.891Z,28.30
2018-09-20T12:03:37.002Z,28.30
2018-09-20T12:04:39.130Z,28.40
2018-09-20T12:05:41.272Z,28.30
2018-09-20T12:06:43.857Z,28.30
2018-09-20T12:07:45.988Z,28.40
2018-09-20T12:08:48.146Z,28.40
2018-09-20T12:09:50.313Z,28.40
2018-09-20T12:10:52.442Z,28.50
2018-09-20T12:11:54.586Z,28.50
2018-09-20T12:12:56.725Z,28.50
2018-09-20T12:13:58.881Z,28.50
2018-09-20T12:15:01.033Z,28.50
2018-09-20T12:16:03.261Z,28.50
2018-09-20T12:17:05.425Z,28.50
2018-09-20T12:18:07.545Z,28.60
2018-09-20T12:19:09.684Z,28.70
2018-09-20T12:20:11.817Z,28.70
2018-09-20T12:21:13.932Z,28.70
2018-09-20T12:22:16.044Z,28.70
2018-09-20T12:23:18.465Z,28.70
2018-09-20T12:24:20.591Z,28.70
2018-09-20T12:25:22.742Z,28.80
2018-09-20T12:26:24.852Z,28.80
2018-09-20T12:27:26.964Z,28.80
2018-09-20T12:28:29.129Z,28.90
2018-09-20T12:29:31.529Z,28.90
2018-09-20T12:30:33.655Z,28.90
2018-09-20T12:31:35.852Z,28.90
2018-09-20T12:32:37.940Z,28.80
2018-09-20T12:33:40.071Z,28.80
2018-09-20T12:34:42.214Z,28.80
2018-09-20T12:35:44.477Z,28.90
2018-09-20T12:36:46.837Z,29.00
2018-09-20T12:37:49.357Z,29.00
2018-09-20T12:38:51.545Z,29.10
2018-09-20T12:39:53.933Z,29.10
2018-09-20T12:40:56.115Z,29.20
2018-09-20T12:41:58.242Z,29.20
2018-09-20T12:43:00.485Z,29.20
2018-09-20T12:44:02.534Z,29.20
2018-09-20T12:45:04.717Z,29.40
2018-09-20T12:46:06.880Z,29.40
2018-09-20T12:47:09.034Z,29.50
2018-09-20T12:48:11.212Z,29.50
2018-09-20T12:49:13.305Z,29.50
2018-09-20T12:50:15.446Z,29.60
2018-09-20T12:51:17.573Z,29.60
2018-09-20T12:52:19.773Z,29.70
2018-09-20T12:53:21.914Z,29.70
2018-09-20T12:54:24.269Z,29.70
2018-09-20T12:55:26.426Z,29.80
2018-09-20T12:56:28.737Z,29.80
2018-09-20T12:57:30.881Z,29.90
2018-09-20T12:58:37.056Z,29.90
2018-09-20T12:59:39.181Z,29.90
2018-09-20T13:00:41.389Z,29.90
2018-09-20T13:01:43.475Z,29.90
2018-09-20T13:02:45.630Z,29.90
2018-09-20T13:03:48.483Z,30.00
2018-09-20T13:04:50.941Z,30.00
2018-09-20T13:05:53.593Z,30.00
2018-09-20T13:06:55.705Z,30.00
2018-09-20T13:07:57.945Z,30.00
2018-09-20T13:09:00.065Z,30.10
2018-09-20T13:10:02.560Z,30.00
2018-09-20T13:11:04.753Z,30.10
2018-09-20T13:12:06.910Z,30.10
2018-09-20T13:13:09.396Z,30.10
2018-09-20T13:14:11.524Z,30.10
2018-09-20T13:15:13.661Z,30.20
2018-09-20T13:16:16.042Z,30.20
2018-09-20T13:17:18.389Z,30.20
2018-09-20T13:18:20.525Z,30.30
2018-09-20T13:19:22.671Z,30.30
2018-09-20T13:20:24.862Z,30.40
2018-09-20T13:21:26.969Z,30.40